Time;durP1;ratioP1;P1;durP2;ratioP2;P2;SDS_P1;SDS_P2;PMS_P1;PMS_P2;Temp;Humidity;BMP_temperature;BMP_pressure;BME280_temperature;BME280_humidity;BME280_pressure;Samples;Min_cycle;Max_cycle;Signal;HPM_P1;HPM_P2
2022/02/02 01:05:17;;;;;;;21.02;4.18;;;;;;;8.04;78.81;100091.75;6251537;23;20027;-92
2022/02/02 02:21:12;;;;;;;20.33;4.82;;;;;;;8.18;76.66;100122.88;6343587;22;20053;-92
2022/02/02 02:23:55;;;;;;;26.65;5.55;;;;;;;7.87;76.55;100061.78;6343142;22;20018;-92
2022/02/02 02:26:30;;;;;;;22.75;4.28;;;;;;;8.13;76.16;100105.50;6343471;22;20018;-92
2022/02/02 02:29:45;;;;;;;25.02;4.78;;;;;;;8.09;75.66;100097.72;6341852;22;20015;-92
2022/02/02 05:57:15;;;;;;;29.02;4.63;;;;;;;7.89;71.42;100199.63;6364404;22;20025;-93
2022/02/02 05:59:50;;;;;;;31.38;5.03;;;;;;;8.04;70.66;100220.13;6235633;22;20010;-92
2022/02/02 06:06:31;;;;;;;;;;;;;;;7.99;71.49;100244.06;6310912;22;20388;-92
2022/02/02 06:09:01;;;;;;;27.70;4.40;;;;;;;7.64;71.29;100208.50;6309961;22;19950;-93
2022/02/02 06:19:18;;;;;;;16.08;3.40;;;;;;;7.92;71.38;100268.94;6377251;22;20071;-92
2022/02/02 06:26:02;;;;;;;18.17;3.70;;;;;;;7.58;74.30;100285.13;6368124;22;20029;-92
2022/02/02 06:35:54;;;;;;;19.90;3.78;;;;;;;7.01;76.93;100257.31;6227426;22;20047;-93
2022/02/02 06:38:29;;;;;;;16.10;3.78;;;;;;;7.31;76.41;100281.72;6226743;23;20044;-94
2022/02/02 06:44:45;;;;;;;24.92;4.63;;;;;;;7.47;76.27;100311.00;6396282;22;20002;-96
2022/02/02 06:50:43;;;;;;;26.23;4.88;;;;;;;7.44;74.97;100278.63;6377195;22;20029;-94
2022/02/02 06:54:09;;;;;;;21.42;4.50;;;;;;;7.62;75.18;100320.16;6377936;22;20068;-93
2022/02/02 07:03:20;;;;;;;24.40;4.05;;;;;;;7.59;73.67;100288.63;6348281;22;20094;-91
2022/02/02 07:11:19;;;;;;;26.75;4.82;;;;;;;7.58;73.72;100305.34;6337946;22;20034;-92
2022/02/02 07:14:14;;;;;;;22.52;4.35;;;;;;;7.88;72.72;100337.63;6343166;22;20103;-91
2022/02/02 07:17:10;;;;;;;23.65;4.13;;;;;;;7.79;72.35;100333.56;6342112;22;20026;-91
2022/02/02 07:20:00;;;;;;;26.98;4.88;;;;;;;7.90;72.33;100349.00;6335308;22;20007;-92
2022/02/02 07:28:02;;;;;;;29.75;4.80;;;;;;;7.80;73.29;100351.13;6338325;22;20015;-91
2022/02/02 07:33:35;;;;;;;20.15;3.50;;;;;;;7.87;72.38;100349.97;6303318;22;20019;-92
2022/02/02 07:36:14;;;;;;;22.35;3.80;;;;;;;7.81;72.57;100363.38;6342250;22;20018;-93
2022/02/02 07:38:59;;;;;;;21.08;3.80;;;;;;;7.80;72.64;100366.06;6337579;22;20030;-92
2022/02/02 07:41:39;;;;;;;20.98;4.00;;;;;;;7.51;72.72;100327.59;6330361;22;20015;-95
2022/02/02 07:44:18;;;;;;;21.20;4.47;;;;;;;7.66;71.84;100342.84;6335423;22;20354;-92
2022/02/02 07:46:54;;;;;;;14.32;3.38;;;;;;;7.81;71.85;100380.97;6334290;22;20018;-93
2022/02/02 07:49:29;;;;;;;23.80;3.72;;;;;;;7.77;70.58;100353.84;6336297;22;20113;-92
2022/02/02 07:51:57;;;;;;;27.95;5.03;;;;;;;7.78;70.26;100368.75;6334203;22;20011;-92
2022/02/02 07:54:30;;;;;;;23.98;4.30;;;;;;;7.81;70.16;100388.88;6336647;22;20076;-92
2022/02/02 07:57:20;;;;;;;24.33;4.22;;;;;;;7.56;70.33;100373.06;6341547;22;20045;-91
2022/02/02 07:59:56;;;;;;;16.95;3.42;;;;;;;7.90;70.44;100422.81;6370864;22;20109;-90
2022/02/02 08:03:12;;;;;;;22.60;3.90;;;;;;;7.80;69.43;100402.97;6375400;22;20019;-92
2022/02/02 08:05:17;;;;;;;17.25;3.50;;;;;;;7.82;68.95;100402.00;6351869;22;20196;-91
2022/02/02 08:08:04;;;;;;;26.60;4.28;;;;;;;7.80;69.42;100406.47;6386496;22;20010;-92
2022/02/02 08:10:32;;;;;;;21.45;4.30;;;;;;;7.69;69.07;100390.19;6383586;22;20051;-92
2022/02/02 08:13:08;;;;;;;21.48;4.80;;;;;;;7.95;69.40;100461.28;6380181;22;20441;-90
2022/02/02 08:15:38;;;;;;;22.38;4.22;;;;;;;7.91;69.73;100458.81;6380718;22;20021;-90
2022/02/02 08:18:10;;;;;;;18.60;3.88;;;;;;;7.89;70.12;100439.53;6377069;22;20015;-91
2022/02/02 08:20:37;;;;;;;22.40;4.75;;;;;;;7.84;69.96;100434.47;6368982;22;20081;-92
2022/02/02 08:23:04;;;;;;;21.33;4.15;;;;;;;8.03;70.22;100453.09;6369531;22;20029;-91
2022/02/02 08:25:32;;;;;;;23.98;4.80;;;;;;;8.05;70.35;100469.72;6370164;22;20033;-91
2022/02/02 08:28:02;;;;;;;23.80;5.03;;;;;;;7.97;71.01;100470.03;6368477;22;20039;-93
2022/02/02 08:30:30;;;;;;;20.25;3.97;;;;;;;8.06;71.14;100467.03;6367321;22;20018;-91
2022/02/02 08:33:02;;;;;;;24.00;4.00;;;;;;;7.88;71.32;100416.72;6368720;22;20015;-90
2022/02/02 08:35:45;;;;;;;15.90;3.65;;;;;;;7.71;71.23;100414.72;6369317;22;20011;-91
2022/02/02 08:38:34;;;;;;;28.20;4.63;;;;;;;7.81;71.69;100454.78;6342732;22;20479;-92
2022/02/02 08:41:08;;;;;;;18.35;3.50;;;;;;;7.69;72.95;100453.44;6342801;22;20010;-94
2022/02/02 08:43:43;;;;;;;15.27;3.60;;;;;;;7.52;74.45;100435.56;6368837;22;20451;-95
2022/02/02 08:46:26;;;;;;;11.85;2.53;;;;;;;7.47;76.45;100479.63;6368932;22;20025;-93
2022/02/02 08:48:56;;;;;;;9.98;2.28;;;;;;;7.07;79.17;100480.06;6368259;22;20603;-94
2022/02/02 08:51:28;;;;;;;9.45;2.25;;;;;;;6.67;81.80;100459.34;6367806;22;20014;-91
2022/02/02 09:02:10;;;;;;;11.25;1.98;;;;;;;6.66;81.47;100474.28;6372971;22;20245;-91
2022/02/02 09:08:03;;;;;;;10.57;2.30;;;;;;;6.93;80.19;100482.25;6376760;22;20018;-91
2022/02/02 09:23:12;;;;;;;10.98;2.50;;;;;;;7.09;78.78;100480.84;6374671;22;20024;-91
2022/02/02 09:36:12;;;;;;;11.93;2.30;;;;;;;7.49;78.34;100524.38;6353860;22;20354;-93
2022/02/02 09:38:45;;;;;;;12.63;2.85;;;;;;;7.51;76.41;100480.41;6375910;22;20089;-91
2022/02/02 09:43:56;;;;;;;10.55;2.53;;;;;;;8.01;74.63;100550.75;6372803;22;20022;-92
2022/02/02 09:46:30;;;;;;;12.48;2.60;;;;;;;7.99;74.42;100568.41;6378102;22;20075;-92
2022/02/02 09:50:03;;;;;;;12.25;2.72;;;;;;;7.54;74.84;100518.06;6351470;22;20568;-92
2022/02/02 09:52:18;;;;;;;9.38;2.45;;;;;;;7.61;75.56;100559.09;6367571;22;20861;-92
2022/02/02 09:55:30;;;;;;;;;;;;;;;;;;;;;
2022/02/02 09:58:58;;;;;;;12.18;2.40;;;;;;;7.28;75.89;100555.75;6361830;22;20014;-91
2022/02/02 10:01:56;;;;;;;11.43;2.60;;;;;;;7.56;76.67;100603.19;6378588;22;20048;-91
2022/02/02 10:04:42;;;;;;;12.05;3.00;;;;;;;7.60;76.74;100618.00;6385153;22;20052;-90
2022/02/02 10:16:19;;;;;;;14.15;3.20;;;;;;;8.49;77.06;100623.88;6331498;22;20014;-92
2022/02/02 10:19:24;;;;;;;17.35;3.53;;;;;;;9.09;73.35;100599.69;6389725;22;20018;-93
2022/02/02 10:21:58;;;;;;;27.17;4.00;;;;;;;9.23;71.46;100548.94;6388774;22;20014;-95
2022/02/02 10:24:46;;;;;;;12.07;3.10;;;;;;;9.62;68.24;100543.84;6361222;22;20026;-93
2022/02/02 10:27:35;;;;;;;11.10;3.20;;;;;;;9.80;67.36;100543.09;6362451;22;20029;-93
2022/02/02 10:30:22;;;;;;;16.02;3.08;;;;;;;9.96;66.59;100532.72;6389746;22;20048;-92
2022/02/02 10:33:05;;;;;;;17.45;3.00;;;;;;;10.55;64.80;100612.25;6383906;22;20018;-91
2022/02/02 10:35:42;;;;;;;19.52;3.90;;;;;;;10.54;64.38;100583.22;6386880;22;20093;-94
2022/02/02 10:38:30;;;;;;;13.15;3.50;;;;;;;10.64;63.14;100597.75;6390734;22;20022;-93
2022/02/02 10:43:46;;;;;;;15.85;3.45;;;;;;;10.84;61.79;100599.53;6386279;22;20014;-92
2022/02/02 10:46:51;;;;;;;18.10;3.55;;;;;;;11.15;59.87;100623.72;6356422;22;20018;-92
2022/02/02 10:49:32;;;;;;;14.85;2.88;;;;;;;10.90;58.93;100591.28;6384742;22;20041;-92
2022/02/02 10:52:24;;;;;;;13.60;3.10;;;;;;;11.01;58.91;100614.69;6383743;22;20079;-93
2022/02/02 11:01:35;;;;;;;11.80;3.00;;;;;;;10.01;60.46;100606.63;6380646;22;20097;-94
2022/02/02 11:07:10;;;;;;;14.77;2.85;;;;;;;9.77;59.41;100601.41;6381469;22;20014;-93
2022/02/02 11:09:38;;;;;;;11.48;2.45;;;;;;;9.59;59.52;100586.28;6353721;22;20434;-91
2022/02/02 11:12:08;;;;;;;12.85;2.78;;;;;;;9.97;59.64;100650.84;6377952;22;20082;-93
2022/02/02 11:14:47;;;;;;;13.55;2.67;;;;;;;10.03;59.57;100634.75;6371926;22;20015;-90
2022/02/02 11:17:47;;;;;;;13.43;3.13;;;;;;;10.25;59.63;100649.75;6373553;22;20022;-94
2022/02/02 11:20:16;;;;;;;11.60;2.72;;;;;;;10.31;59.01;100600.09;6371961;22;20083;-92
2022/02/02 11:22:54;;;;;;;16.13;3.45;;;;;;;10.72;58.30;100635.34;6369836;22;20101;-92
2022/02/02 11:25:24;;;;;;;14.02;3.05;;;;;;;10.69;57.87;100616.97;6367091;22;20044;-91
2022/02/02 11:27:53;;;;;;;14.85;2.80;;;;;;;10.59;57.77;100610.34;6369131;22;20180;-91
2022/02/02 11:30:23;;;;;;;12.20;2.63;;;;;;;10.78;56.69;100632.44;6367769;22;20038;-91
2022/02/02 11:32:52;;;;;;;10.82;2.28;;;;;;;10.73;56.71;100633.56;6367964;22;20326;-91
2022/02/02 11:35:41;;;;;;;11.45;2.70;;;;;;;10.61;56.95;100648.22;6369361;22;20069;-91
2022/02/02 11:38:28;;;;;;;13.63;2.53;;;;;;;10.60;56.44;100650.91;6371681;22;20049;-91
2022/02/02 11:44:33;;;;;;;16.50;3.05;;;;;;;10.44;56.18;100633.03;6241328;23;20020;-94
2022/02/02 11:47:22;;;;;;;11.70;2.47;;;;;;;10.24;55.63;100580.06;6350849;22;20782;-92
2022/02/02 11:50:01;;;;;;;11.05;2.42;;;;;;;10.38;56.58;100619.22;6341611;22;20729;-91
2022/02/02 11:52:45;;;;;;;11.57;2.85;;;;;;;10.37;56.76;100610.41;6340400;22;20315;-91
2022/02/02 11:55:19;;;;;;;11.48;2.72;;;;;;;10.48;56.66;100641.72;6369745;22;20604;-91
2022/02/02 11:58:15;;;;;;;17.50;3.47;;;;;;;10.01;56.89;100610.13;6369925;22;20460;-92
2022/02/02 12:01:07;;;;;;;12.68;2.40;;;;;;;9.93;56.99;100636.03;6306898;22;20038;-91
2022/02/02 12:04:04;;;;;;;14.40;3.20;;;;;;;10.03;57.43;100650.63;6301189;22;20015;-91
2022/02/02 12:46:17;;;;;;;13.88;3.00;;;;;;;9.74;59.13;100687.94;6338226;22;20629;-92
2022/02/02 12:48:07;;;;;;;15.60;2.97;;;;;;;9.58;59.65;100685.03;6338937;22;20015;-93
2022/02/02 12:56:33;;;;;;;13.93;3.13;;;;;;;9.31;60.74;100694.84;6341306;22;20022;-92
2022/02/02 12:59:40;;;;;;;14.60;2.90;;;;;;;9.36;61.34;100711.41;6338085;22;20032;-94
2022/02/02 13:02:26;;;;;;;14.80;3.13;;;;;;;9.42;61.15;100718.25;6376057;22;20009;-92
2022/02/02 13:04:56;;;;;;;15.63;3.83;;;;;;;9.36;60.87;100711.41;6374522;22;20018;-93
2022/02/02 13:07:30;;;;;;;14.10;3.50;;;;;;;9.31;61.35;100708.06;6388921;22;20022;-93
2022/02/02 13:10:07;;;;;;;16.77;3.55;;;;;;;9.31;61.63;100729.19;6385262;22;20014;-94
2022/02/02 13:12:52;;;;;;;16.98;3.22;;;;;;;9.13;61.80;100725.44;6384148;22;20018;-94
2022/02/02 13:15:35;;;;;;;17.15;4.18;;;;;;;9.22;62.60;100744.53;6351509;22;20070;-92
2022/02/02 13:21:12;;;;;;;16.38;3.03;;;;;;;9.16;64.33;100719.19;6360064;22;20018;-91
2022/02/02 13:26:42;;;;;;;18.00;3.63;;;;;;;9.31;63.95;100721.28;6375607;22;20018;-92
2022/02/02 13:29:27;;;;;;;13.57;2.75;;;;;;;9.30;64.26;100732.75;6373657;22;20015;-92
2022/02/02 13:32:13;;;;;;;10.15;2.83;;;;;;;9.40;64.54;100713.03;6381481;22;20048;-90
2022/02/02 13:49:30;;;;;;;14.23;3.33;;;;;;;10.08;62.14;100721.84;6380288;22;20319;-93
2022/02/02 13:52:22;;;;;;;15.57;3.38;;;;;;;10.18;61.42;100723.22;6354114;22;20023;-93
2022/02/02 13:55:36;;;;;;;11.75;2.63;;;;;;;10.34;60.28;100681.16;6351893;22;20026;-91
2022/02/02 14:06:55;;;;;;;7.93;2.10;;;;;;;10.46;57.90;100717.69;6372563;22;20117;-92
2022/02/02 14:09:42;;;;;;;11.18;2.53;;;;;;;10.47;58.87;100717.63;6373878;22;20056;-93
2022/02/02 14:31:05;;;;;;;12.90;3.08;;;;;;;11.12;57.18;100766.13;6375051;22;20049;-91
2022/02/02 14:31:47;;;;;;;18.77;3.10;;;;;;;10.80;57.66;100719.81;6376213;22;20018;-92
2022/02/02 14:34:34;;;;;;;14.60;3.10;;;;;;;10.80;57.24;100728.63;6374497;22;20116;-91
2022/02/02 14:37:02;;;;;;;13.80;2.75;;;;;;;10.95;57.59;100769.47;6347435;22;20014;-92
2022/02/02 14:39:51;;;;;;;13.85;3.42;;;;;;;10.73;58.13;100732.44;6375108;22;20038;-92
2022/02/02 14:42:22;;;;;;;16.30;2.85;;;;;;;10.82;57.75;100761.19;6347259;22;20018;-93
2022/02/02 14:45:01;;;;;;;12.48;2.80;;;;;;;10.82;58.39;100785.03;6374170;22;20021;-92
2022/02/02 14:47:36;;;;;;;16.08;3.20;;;;;;;10.93;57.69;100791.66;6375041;22;20041;-92
2022/02/02 14:50:30;;;;;;;14.98;2.90;;;;;;;10.78;56.65;100775.50;6346344;22;20037;-91
2022/02/02 15:16:42;;;;;;;17.25;2.58;;;;;;;10.13;59.37;100770.19;6374790;22;20054;-89
2022/02/02 15:32:18;;;;;;;20.80;4.10;;;;;;;9.91;59.55;100767.50;6376766;22;20075;-91
2022/02/02 15:34:58;;;;;;;17.42;3.53;;;;;;;10.15;59.77;100811.53;6374749;22;20093;-91
2022/02/02 15:42:57;;;;;;;21.05;3.35;;;;;;;9.96;61.35;100815.81;6375236;22;20014;-91
2022/02/02 16:02:20;;;;;;;17.25;4.50;;;;;;;8.95;66.55;100833.53;6376103;22;20048;-91
2022/02/02 16:04:47;;;;;;;24.15;3.85;;;;;;;8.95;67.33;100866.09;6354831;22;20026;-91
2022/02/02 16:07:26;;;;;;;21.02;4.35;;;;;;;8.62;67.71;100831.09;6374281;22;20018;-91
2022/02/02 16:10:12;;;;;;;23.45;4.38;;;;;;;8.55;68.26;100834.81;6348911;22;20018;-94
2022/02/02 16:12:46;;;;;;;16.77;4.28;;;;;;;8.63;68.30;100838.09;6374591;22;20022;-91
2022/02/02 16:15:32;;;;;;;22.60;4.00;;;;;;;8.47;68.20;100817.50;6375663;22;20018;-89
2022/02/02 16:18:19;;;;;;;18.10;3.67;;;;;;;8.31;68.91;100801.25;6376721;22;20053;-92
2022/02/02 16:35:30;;;;;;;21.45;4.60;;;;;;;8.16;71.54;100865.03;6370922;22;20026;-91
2022/02/02 16:38:00;;;;;;;23.17;4.80;;;;;;;7.86;72.03;100819.34;6374204;22;20464;-95
2022/02/02 16:40:34;;;;;;;18.45;5.03;;;;;;;7.95;72.20;100850.69;6374553;22;20079;-93
2022/02/02 16:43:15;;;;;;;22.80;4.55;;;;;;;7.75;72.96;100833.66;6345224;22;20041;-92
2022/02/02 16:45:52;;;;;;;26.38;4.68;;;;;;;7.92;73.31;100856.91;6368723;22;20019;-91
2022/02/02 16:48:24;;;;;;;17.17;3.97;;;;;;;8.09;72.91;100882.81;6371530;22;20423;-93
2022/02/02 16:51:07;;;;;;;22.45;4.30;;;;;;;8.10;72.27;100888.03;6373214;22;20026;-92
2022/02/02 16:53:45;;;;;;;14.98;4.32;;;;;;;7.80;73.03;100849.38;6371969;22;20025;-90
2022/02/02 16:56:33;;;;;;;21.50;4.60;;;;;;;7.71;72.94;100855.75;6372182;22;20422;-92
2022/02/02 17:25:12;;;;;;;21.45;5.68;;;;;;;7.57;76.54;100936.97;6340122;22;20011;-91
2022/02/02 17:35:38;;;;;;;23.55;6.63;;;;;;;7.35;77.21;100934.03;6344868;22;20014;-90
2022/02/02 17:38:21;;;;;;;25.42;6.68;;;;;;;7.25;77.21;100918.47;6346117;22;20598;-93
2022/02/02 17:41:23;;;;;;;26.20;6.63;;;;;;;7.12;77.33;100915.28;6342644;22;20352;-92
2022/02/02 18:12:28;;;;;;;27.85;6.82;;;;;;;7.27;75.17;100920.19;6379533;22;20019;-93
2022/02/02 18:20:45;;;;;;;20.48;6.80;;;;;;;7.18;76.45;100965.19;6375386;22;20490;-91
2022/02/02 18:29:20;;;;;;;26.30;6.90;;;;;;;6.73;77.22;100932.91;6250289;23;20047;-90
2022/02/02 18:32:02;;;;;;;24.88;6.28;;;;;;;6.75;77.62;100949.53;6248119;23;20059;-93
2022/02/02 18:34:47;;;;;;;22.30;5.57;;;;;;;6.89;77.13;100971.16;6319029;22;20113;-92
2022/02/02 18:39:10;;;;;;;20.30;5.97;;;;;;;6.71;76.97;100931.19;6373442;22;20043;-91
2022/02/02 18:44:34;;;;;;;15.18;5.35;;;;;;;6.72;76.36;100944.34;6311472;22;19918;-92
2022/02/02 18:46:30;;;;;;;27.48;6.43;;;;;;;6.85;75.98;100963.34;6351186;22;20040;-92
2022/02/02 18:49:21;;;;;;;21.08;6.10;;;;;;;6.79;75.50;100956.44;6354805;22;20512;-94
2022/02/02 19:00:32;;;;;;;22.80;6.30;;;;;;;6.84;75.07;100951.94;6375727;22;20073;-93
2022/02/02 19:40:16;;;;;;;24.88;7.05;;;;;;;6.02;78.31;100969.47;6373651;22;20022;-91
2022/02/02 19:57:22;;;;;;;24.35;7.07;;;;;;;6.15;79.90;101033.19;6372635;22;20022;-91
2022/02/02 20:05:32;;;;;;;28.67;8.10;;;;;;;5.91;79.55;100974.94;6374744;22;20022;-92
2022/02/02 20:10:37;;;;;;;29.67;8.82;;;;;;;6.39;79.59;101031.88;6372490;22;20014;-95
2022/02/02 20:13:04;;;;;;;23.73;7.93;;;;;;;6.12;79.20;100976.28;6374670;22;20025;-91
2022/02/02 20:15:35;;;;;;;23.02;7.30;;;;;;;6.36;79.24;101021.41;6374007;22;20044;-92
2022/02/02 20:18:04;;;;;;;27.92;7.40;;;;;;;6.27;79.83;101006.69;6372330;22;20025;-90
2022/02/02 20:20:37;;;;;;;24.05;7.40;;;;;;;6.35;80.07;101025.78;6373215;22;20065;-92
2022/02/02 20:23:06;;;;;;;27.63;8.45;;;;;;;6.10;79.92;100982.47;6373916;22;20053;-90
2022/02/02 20:25:35;;;;;;;20.95;7.50;;;;;;;6.38;79.70;101030.13;6375908;22;20089;-91
2022/02/02 20:28:09;;;;;;;23.70;7.35;;;;;;;6.07;80.16;100966.75;6371145;22;20071;-91
2022/02/02 20:30:38;;;;;;;20.73;6.82;;;;;;;6.32;80.35;101003.03;6374864;22;20121;-92
2022/02/02 20:33:11;;;;;;;22.77;7.60;;;;;;;6.27;80.28;100989.13;6373133;22;20018;-92
2022/02/02 20:35:38;;;;;;;24.80;7.57;;;;;;;6.35;79.84;100999.50;6346048;22;20006;-90
2022/02/02 20:38:06;;;;;;;23.75;8.07;;;;;;;6.47;80.16;101025.53;6371220;22;20075;-92
2022/02/02 20:40:47;;;;;;;24.58;7.97;;;;;;;6.55;79.78;101034.16;6373405;22;20101;-92
2022/02/02 20:46:32;;;;;;;25.30;7.75;;;;;;;6.39;79.74;101011.69;6373130;22;20025;-92
2022/02/02 21:00:24;;;;;;;22.77;7.32;;;;;;;6.25;80.44;101019.00;6386391;22;20585;-92
2022/02/02 21:03:18;;;;;;;26.65;8.43;;;;;;;6.30;80.56;101022.38;6353563;22;20437;-91
2022/02/02 21:06:13;;;;;;;22.73;8.45;;;;;;;6.33;80.66;101038.97;6350983;22;20015;-91
2022/02/02 21:09:09;;;;;;;24.20;7.95;;;;;;;6.26;81.05;101039.13;6348711;22;20122;-92
2022/02/02 21:14:14;;;;;;;;;;;;;;;6.33;81.21;101067.03;6377789;22;20037;-93
2022/02/02 21:16:46;;;;;;;20.45;7.70;;;;;;;5.94;81.49;101006.44;6349022;22;19921;-93
2022/02/02 21:19:34;;;;;;;26.40;8.00;;;;;;;6.26;81.82;101068.06;6372348;22;20053;-91
2022/02/02 21:22:03;;;;;;;29.48;8.90;;;;;;;6.18;82.25;101056.81;6375839;22;20029;-91
2022/02/02 21:24:47;;;;;;;23.77;7.22;;;;;;;6.16;82.24;101058.59;6373575;22;20019;-93
2022/02/02 21:27:36;;;;;;;22.10;7.75;;;;;;;6.09;82.86;101051.72;6349341;22;20695;-92
2022/02/02 21:30:08;;;;;;;25.92;8.27;;;;;;;6.12;82.70;101051.69;6351775;22;20528;-91
2022/02/02 21:32:36;;;;;;;20.65;7.95;;;;;;;6.00;82.67;101031.72;6376413;22;20446;-91
2022/02/02 21:35:18;;;;;;;25.33;7.47;;;;;;;5.90;82.48;101015.25;6375663;22;20083;-91
2022/02/02 21:37:51;;;;;;;21.02;7.43;;;;;;;5.94;82.86;101018.69;6329206;22;20060;-91
2022/02/02 21:40:30;;;;;;;17.80;6.93;;;;;;;6.12;82.58;101043.78;6312652;22;20019;-91
2022/02/02 21:42:58;;;;;;;23.98;7.60;;;;;;;6.02;82.75;101034.31;6310233;22;20019;-92
2022/02/02 21:45:29;;;;;;;26.27;8.27;;;;;;;6.05;82.72;101039.53;6304177;22;20061;-92
2022/02/02 21:47:57;;;;;;;29.02;8.43;;;;;;;6.13;82.28;101056.91;6301415;22;20470;-94
2022/02/02 21:50:26;;;;;;;24.40;7.85;;;;;;;6.03;83.03;101042.19;6303177;22;20394;-92
2022/02/02 21:53:01;;;;;;;23.85;7.93;;;;;;;5.77;82.99;101000.56;6303361;22;20020;-91
2022/02/02 21:55:43;;;;;;;21.45;7.97;;;;;;;5.94;83.38;101022.19;6306652;22;20019;-92
2022/02/02 21:58:24;;;;;;;26.60;8.57;;;;;;;5.93;82.90;101025.72;6334331;22;20068;-90
2022/02/02 22:00:55;;;;;;;;;;;;;;;6.20;82.47;101060.28;6348255;22;20036;-88
2022/02/02 22:03:26;;;;;;;23.63;7.72;;;;;;;6.04;82.82;101029.91;6377207;22;19937;-93
2022/02/02 22:06:11;;;;;;;26.70;8.88;;;;;;;6.01;82.78;101025.56;6348703;22;20014;-90
2022/02/02 22:08:45;;;;;;;25.13;8.57;;;;;;;6.09;82.77;101036.81;6370432;22;20103;-92
2022/02/02 22:11:18;;;;;;;22.83;8.30;;;;;;;5.96;82.47;101003.78;6374242;22;20024;-90
2022/02/02 22:13:57;;;;;;;23.67;7.95;;;;;;;6.28;82.44;101061.03;6346433;22;20010;-89
2022/02/02 22:16:25;;;;;;;25.92;7.50;;;;;;;6.03;82.62;101021.16;6348340;22;20022;-92
2022/02/02 22:18:52;;;;;;;26.70;8.35;;;;;;;5.98;82.82;101013.34;6371136;22;20455;-92
2022/02/02 22:21:26;;;;;;;21.90;8.20;;;;;;;6.02;82.91;101022.03;6369889;22;20049;-91
2022/02/02 22:24:02;;;;;;;24.48;8.13;;;;;;;5.96;82.94;101020.41;6371249;22;20022;-91
2022/02/02 22:26:44;;;;;;;25.10;9.00;;;;;;;6.07;83.20;101035.97;6370312;22;20019;-93
2022/02/02 22:29:12;;;;;;;21.10;9.55;;;;;;;6.23;82.98;101071.63;6372371;22;20018;-90
2022/02/02 22:31:44;;;;;;;22.83;8.82;;;;;;;6.17;82.88;101062.97;6372029;22;20666;-91
2022/02/02 22:34:37;;;;;;;29.23;9.25;;;;;;;6.05;83.19;101044.78;6246290;23;20028;-91
2022/02/02 22:37:29;;;;;;;31.52;10.73;;;;;;;5.85;83.36;101009.16;6243868;23;20545;-89
2022/02/02 22:40:03;;;;;;;26.45;8.00;;;;;;;6.14;83.56;101063.03;6241481;23;20554;-91
2022/02/02 22:42:36;;;;;;;27.63;9.27;;;;;;;6.10;83.00;101040.31;6242842;22;20702;-88
2022/02/02 22:45:08;;;;;;;25.85;9.45;;;;;;;6.18;82.89;101057.66;6242839;23;20024;-89
2022/02/02 22:47:43;;;;;;;26.25;9.15;;;;;;;6.01;83.17;101036.06;6243080;23;20015;-91
2022/02/02 22:50:14;;;;;;;25.85;9.00;;;;;;;6.01;83.21;101035.22;6242548;23;20075;-88
2022/02/02 22:52:47;;;;;;;25.48;9.48;;;;;;;5.90;83.45;101023.13;6319147;22;20023;-88
2022/02/02 22:55:16;;;;;;;27.95;9.82;;;;;;;5.84;83.86;101011.81;6370769;22;20029;-90
2022/02/02 22:57:53;;;;;;;22.75;8.98;;;;;;;6.19;84.09;101063.81;6370176;22;20045;-92
2022/02/02 23:00:32;;;;;;;22.00;8.90;;;;;;;6.11;84.31;101044.69;6343682;22;20342;-91
2022/02/02 23:03:20;;;;;;;23.85;9.18;;;;;;;6.10;84.35;101035.06;6358226;22;20022;-90
2022/02/02 23:06:02;;;;;;;28.23;9.82;;;;;;;6.13;83.96;101030.63;6282391;22;20042;-91
2022/02/02 23:08:30;;;;;;;22.02;9.20;;;;;;;6.12;84.37;101030.66;6303777;22;20019;-90
2022/02/02 23:10:59;;;;;;;23.77;8.73;;;;;;;6.12;84.04;101038.53;6282798;22;20035;-89
2022/02/02 23:13:28;;;;;;;29.13;9.27;;;;;;;5.99;84.12;101008.94;6307329;22;20019;-90
2022/02/02 23:16:19;;;;;;;25.88;9.88;;;;;;;6.36;83.78;101063.50;6302280;22;20030;-90
2022/02/02 23:18:46;;;;;;;26.90;9.75;;;;;;;6.21;83.50;101025.19;6301132;22;20019;-89
2022/02/02 23:21:13;;;;;;;23.77;9.80;;;;;;;6.30;83.00;101032.91;6278543;22;20018;-90
2022/02/02 23:23:45;;;;;;;25.50;9.07;;;;;;;6.11;82.65;101002.63;6302690;22;20046;-91
2022/02/02 23:26:22;;;;;;;28.15;9.75;;;;;;;6.26;82.92;101031.25;6303303;22;20102;-91
2022/02/02 23:29:03;;;;;;;28.35;9.52;;;;;;;6.19;83.04;101016.47;6301754;22;20030;-90
2022/02/02 23:31:32;;;;;;;21.27;9.15;;;;;;;6.38;83.32;101045.91;6304048;22;20015;-90
2022/02/02 23:34:00;;;;;;;22.85;9.38;;;;;;;6.25;83.30;101029.50;6278933;22;20022;-90
2022/02/02 23:36:30;;;;;;;23.90;9.90;;;;;;;6.29;83.68;101033.81;6303816;22;20544;-90
2022/02/02 23:39:03;;;;;;;23.60;9.55;;;;;;;6.30;83.60;101039.03;6302759;22;20372;-90
2022/02/02 23:44:19;;;;;;;21.98;8.90;;;;;;;6.37;83.55;101058.19;6362604;22;20065;-89
2022/02/02 23:46:57;;;;;;;22.63;8.70;;;;;;;6.13;84.13;101019.22;6368711;22;20015;-89
2022/02/02 23:49:48;;;;;;;27.10;9.52;;;;;;;6.25;83.99;101026.88;6364249;22;20093;-91
2022/02/02 23:52:23;;;;;;;28.73;9.15;;;;;;;6.29;84.12;101031.19;6369277;22;20330;-89
2022/02/02 23:54:56;;;;;;;26.73;9.32;;;;;;;6.34;84.16;101031.94;6369884;22;20026;-91
2022/02/02 23:57:49;;;;;;;24.08;8.98;;;;;;;6.46;83.92;101049.25;6369075;22;20022;-92
